Colby, KS (67701)

12:38 PM CST on February 23, 2017 (GMT -0600)
630 Woofter Ave | | Change Station

Elev 3186 ft 39.40 °N, 101.06 °W | Updated 9 seconds ago

Overcast
Overcast
32.4 °F
Feels Like 22 °F
N
15.0
Wind Variable Wind from NE
Gusts 18.0 mph

Today
High -- | Low -- °F
--% Chance of Precip.
Yesterday
High -- | Low -- °F
Precip. -- in
Pressure 29.55 in
Visibility 1.5 miles
Clouds Overcast 300 ft
Windchill 22 °F
Dew Point 31 °F
Humidity 94%
Rainfall 0.00 in
Snow Depth Not available.
7:25 AM 6:30 PM
Waning Crescent, 9% visible
METAR KCBK 231815Z AUTO 05015G23KT 1 1/2SM BR OVC003 01/01 A2955 RMK AO2
Pressure 29.55 in
Visibility 1.5 miles
Clouds Overcast 300 ft
Windchill 22 °F
Dew Point 31 °F
Humidity 94%
Rainfall 0.00 in
Snow Depth Not available.
7:25 AM 6:30 PM
Waning Crescent, 9% visible
METAR KCBK 231815Z AUTO 05015G23KT 1 1/2SM BR OVC003 01/01 A2955 RMK AO2

Get Your Daily Forecast Email!

Thanks for signing up!

Be on the lookout for a verification email in your inbox.

You'll start receiving the daily forecast at 8 AM.

×

10-Day Weather Forecast

Almanac

Astronomy

Feb. 23, 2017 Rise Set
Actual Time
Civil Twilight
Nautical Twilight
Astronomical Twilight
Moon
Length of Visible Light
Length of Day
Tomorrow will be .
, % of the Moon is Illuminated

Today's Extremes

State Highs State Lows

Community

WunderPhotos

Upload Photos

1,962,540 photos uploaded!

WunderBlog® & News

Nearby

Air Quality

  Air Quality AQ Index Pollutant
Not available.

Snow Depth

Station Depth Elevation

Earthquake Activity

City Distance Mag. Time & Date
Minimum magnitude displayed is 2.5.

Coastal Water Temperatures

Place Temperature

Stations

Nearby Weather Stations

Station Location Temp. Windchill Dew Point Humidity Wind Precip. Elev Updated Type
                   

Watches & Warnings

There are currently no watches in effect.